createdAt,value
2023-04-08T00:01:03.138Z,18.00
2023-04-08T00:03:31.027Z,13.00
2023-04-08T00:06:17.785Z,14.50
2023-04-08T00:09:10.919Z,13.25
2023-04-08T00:11:53.537Z,13.00
2023-04-08T00:14:41.142Z,11.00
2023-04-08T00:17:26.174Z,13.00
2023-04-08T00:22:43.531Z,7.00
2023-04-08T00:25:10.567Z,8.00
2023-04-08T00:27:37.634Z,14.50
2023-04-08T00:30:05.136Z,14.50
2023-04-08T00:32:32.199Z,14.00
2023-04-08T00:34:59.303Z,3.00
2023-04-08T00:37:26.311Z,15.00
2023-04-08T00:39:54.470Z,12.00
2023-04-08T00:42:22.297Z,13.00
2023-04-08T00:44:49.384Z,10.50
2023-04-08T00:47:16.945Z,13.50
2023-04-08T00:49:44.932Z,16.75
2023-04-08T00:52:11.978Z,9.50
2023-04-08T00:54:39.119Z,13.25
2023-04-08T00:57:06.887Z,17.25
2023-04-08T00:59:36.279Z,14.50
2023-04-08T01:02:06.630Z,17.50
2023-04-08T01:04:43.315Z,17.50
2023-04-08T01:07:54.091Z,19.00
2023-04-08T01:10:52.403Z,18.00
2023-04-08T01:13:36.613Z,21.67
2023-04-08T01:16:24.105Z,20.33
2023-04-08T01:19:10.122Z,20.33
2023-04-08T01:21:58.261Z,17.33
2023-04-08T01:24:31.448Z,18.00
2023-04-08T01:26:59.629Z,17.67
2023-04-08T01:29:27.043Z,19.00
2023-04-08T01:31:55.803Z,18.33
2023-04-08T01:34:24.710Z,19.33
2023-04-08T01:36:52.952Z,18.00
2023-04-08T01:39:21.889Z,22.00
2023-04-08T01:41:50.545Z,21.00
2023-04-08T01:44:19.378Z,22.00
2023-04-08T01:46:48.140Z,21.67
2023-04-08T01:49:16.881Z,18.00
2023-04-08T01:51:46.851Z,18.33
2023-04-08T01:54:13.921Z,17.00
2023-04-08T01:56:44.943Z,12.75
2023-04-08T01:59:16.244Z,14.50
2023-04-08T02:01:45.782Z,13.50
2023-04-08T02:04:13.882Z,16.67
2023-04-08T02:06:41.504Z,20.33
2023-04-08T02:09:08.635Z,21.33
2023-04-08T02:11:35.842Z,17.33
2023-04-08T02:14:03.029Z,18.00
2023-04-08T02:16:54.059Z,17.00
2023-04-08T02:19:29.811Z,16.00
2023-04-08T02:22:06.156Z,16.00
2023-04-08T02:24:35.336Z,18.33
2023-04-08T02:27:04.477Z,17.33
2023-04-08T02:29:33.153Z,20.00
2023-04-08T02:32:02.443Z,16.67
2023-04-08T02:34:30.899Z,24.00
2023-04-08T02:36:58.382Z,24.00
2023-04-08T02:39:33.300Z,18.67
2023-04-08T02:42:00.738Z,21.67
2023-04-08T02:44:27.710Z,23.67
2023-04-08T02:46:54.657Z,21.00
2023-04-08T02:49:21.755Z,22.33
2023-04-08T02:51:48.756Z,20.00
2023-04-08T02:54:16.071Z,21.00
2023-04-08T02:56:43.282Z,20.33
2023-04-08T02:59:10.219Z,19.33
2023-04-08T03:01:37.322Z,19.00
2023-04-08T03:04:04.571Z,15.33
2023-04-08T03:06:32.511Z,13.00
2023-04-08T03:08:59.525Z,16.33
2023-04-08T03:11:26.607Z,13.67
2023-04-08T03:13:53.603Z,12.00
2023-04-08T03:16:20.864Z,14.00
2023-04-08T03:18:48.234Z,12.00
2023-04-08T03:21:15.470Z,13.67
2023-04-08T03:23:42.477Z,19.33
2023-04-08T03:26:09.508Z,13.33
2023-04-08T03:28:36.865Z,16.00
2023-04-08T03:31:06.980Z,16.00
2023-04-08T03:33:34.079Z,15.67
2023-04-08T03:36:01.178Z,12.75
2023-04-08T03:38:28.240Z,16.00
2023-04-08T03:40:55.232Z,16.00
2023-04-08T03:43:22.286Z,23.33
2023-04-08T03:45:49.404Z,24.00
2023-04-08T03:48:16.489Z,16.00
2023-04-08T03:50:43.543Z,16.33
2023-04-08T03:53:12.502Z,12.00
2023-04-08T03:55:39.953Z,9.67
2023-04-08T03:58:07.112Z,9.00
2023-04-08T04:00:34.066Z,8.33
2023-04-08T04:03:01.785Z,8.00
2023-04-08T04:05:29.803Z,6.00
2023-04-08T04:07:58.667Z,7.00
2023-04-08T04:10:25.755Z,10.75
2023-04-08T04:12:52.865Z,10.00
2023-04-08T04:15:19.836Z,9.00
2023-04-08T04:17:49.426Z,12.00
2023-04-08T04:20:17.208Z,12.33
2023-04-08T04:22:44.406Z,13.00
2023-04-08T04:25:11.579Z,10.00
2023-04-08T04:27:38.548Z,10.25
2023-04-08T04:30:06.457Z,11.33
2023-04-08T04:32:33.527Z,12.00
2023-04-08T04:35:00.706Z,12.00
2023-04-08T04:37:27.881Z,15.00
2023-04-08T04:39:54.855Z,9.00
2023-04-08T04:42:21.917Z,10.00
2023-04-08T04:44:49.574Z,3.33
2023-04-08T04:47:16.849Z,5.25
2023-04-08T04:49:43.935Z,4.00
2023-04-08T04:52:11.744Z,2.00
2023-04-08T04:54:38.682Z,8.00
2023-04-08T04:57:06.001Z,15.67
2023-04-08T04:59:33.036Z,17.67
2023-04-08T05:02:00.258Z,22.33
2023-04-08T05:04:27.334Z,21.33
2023-04-08T05:06:54.280Z,19.00
2023-04-08T05:09:21.527Z,20.33
2023-04-08T05:11:48.532Z,19.33
2023-04-08T05:14:15.478Z,16.33
2023-04-08T05:16:42.476Z,17.67
2023-04-08T05:19:09.501Z,16.00
2023-04-08T05:21:36.714Z,18.33
2023-04-08T05:24:03.800Z,17.00
2023-04-08T05:26:31.225Z,17.67
2023-04-08T05:28:58.202Z,18.33
2023-04-08T05:31:25.461Z,20.00
2023-04-08T05:33:52.418Z,19.67
2023-04-08T05:36:19.712Z,18.33
2023-04-08T05:38:46.703Z,17.33
2023-04-08T05:41:13.685Z,19.00
2023-04-08T05:43:40.697Z,18.33
2023-04-08T05:46:08.581Z,16.33
2023-04-08T05:48:35.957Z,16.00
2023-04-08T05:51:03.870Z,19.33
2023-04-08T05:53:30.965Z,18.00
2023-04-08T05:55:57.894Z,13.00
2023-04-08T05:58:25.294Z,18.33
2023-04-08T06:00:52.295Z,15.00
2023-04-08T06:03:20.726Z,17.00
2023-04-08T06:05:47.984Z,19.50
2023-04-08T06:08:14.999Z,13.25
2023-04-08T06:10:48.577Z,17.25
2023-04-08T06:13:16.342Z,16.75
2023-04-08T06:15:43.498Z,15.25
2023-04-08T06:18:10.433Z,17.00
2023-04-08T06:20:37.436Z,16.75
2023-04-08T06:23:04.345Z,18.00
2023-04-08T06:25:31.338Z,21.00
2023-04-08T06:27:58.336Z,18.00
2023-04-08T06:30:25.285Z,18.75
2023-04-08T06:32:52.334Z,17.25
2023-04-08T06:35:19.410Z,14.25
2023-04-08T06:37:46.564Z,15.00
2023-04-08T06:40:13.711Z,16.00
2023-04-08T06:42:43.346Z,17.50
2023-04-08T06:45:11.530Z,17.00
2023-04-08T06:47:38.648Z,16.25
2023-04-08T06:50:06.399Z,14.25
2023-04-08T06:52:33.519Z,16.00
2023-04-08T06:55:00.480Z,16.50
2023-04-08T06:57:29.700Z,17.50
2023-04-08T06:59:56.826Z,13.75
2023-04-08T07:02:24.868Z,16.50
2023-04-08T07:04:52.099Z,16.25
2023-04-08T07:07:19.294Z,16.25
2023-04-08T07:09:46.897Z,17.00
2023-04-08T07:12:13.815Z,17.00
2023-04-08T07:14:40.825Z,17.00
2023-04-08T07:17:08.027Z,15.75
2023-04-08T07:19:35.189Z,17.00
2023-04-08T07:22:02.792Z,17.50
2023-04-08T07:24:29.751Z,15.00
2023-04-08T07:26:57.398Z,17.00
2023-04-08T07:29:24.363Z,12.00
2023-04-08T07:31:52.041Z,17.00
2023-04-08T07:34:19.091Z,16.50
2023-04-08T07:36:46.093Z,17.25
2023-04-08T07:39:13.054Z,15.75
2023-04-08T07:41:40.028Z,14.00
2023-04-08T07:44:07.833Z,17.00
2023-04-08T07:46:39.364Z,14.25
2023-04-08T07:49:07.047Z,14.75
2023-04-08T07:51:34.000Z,12.25
2023-04-08T07:54:00.937Z,13.25
2023-04-08T07:56:28.156Z,17.00
2023-04-08T07:58:55.886Z,15.50
2023-04-08T08:01:24.665Z,16.50
2023-04-08T08:03:53.549Z,11.25
2023-04-08T08:06:22.320Z,16.00
2023-04-08T08:08:49.417Z,14.00
2023-04-08T08:11:16.485Z,11.75
2023-04-08T08:13:43.623Z,14.00
2023-04-08T08:16:12.353Z,15.00
2023-04-08T08:18:41.133Z,13.50
2023-04-08T08:21:09.063Z,13.00
2023-04-08T08:23:36.309Z,12.50
2023-04-08T08:26:10.249Z,13.00
2023-04-08T08:28:38.480Z,14.00
2023-04-08T08:31:06.470Z,11.75
2023-04-08T08:33:34.230Z,13.75
2023-04-08T08:36:01.476Z,14.00
2023-04-08T08:38:28.537Z,15.00
2023-04-08T08:40:58.034Z,11.25
2023-04-08T08:43:26.534Z,10.25
2023-04-08T08:45:54.124Z,11.25
2023-04-08T08:48:22.556Z,13.25
2023-04-08T08:50:49.578Z,15.25
2023-04-08T08:53:16.733Z,12.00
2023-04-08T08:58:13.613Z,13.00
2023-04-08T09:00:45.768Z,12.25
2023-04-08T09:03:24.894Z,15.50
2023-04-08T09:05:57.679Z,13.00
2023-04-08T09:08:35.121Z,13.00
2023-04-08T09:11:22.646Z,14.00
2023-04-08T09:13:50.551Z,11.25
2023-04-08T09:16:20.171Z,10.50
2023-04-08T09:18:49.590Z,12.25
2023-04-08T09:21:18.468Z,10.00
2023-04-08T09:23:53.282Z,9.25
2023-04-08T09:26:24.488Z,10.00
2023-04-08T09:29:18.438Z,10.25
2023-04-08T09:31:56.553Z,10.00
2023-04-08T09:34:24.726Z,9.00
2023-04-08T09:36:53.180Z,13.25
2023-04-08T09:39:20.788Z,12.25
2023-04-08T09:41:53.163Z,11.50
2023-04-08T09:44:26.918Z,10.25
2023-04-08T09:47:02.452Z,11.00
2023-04-08T09:49:47.139Z,13.50
2023-04-08T09:52:25.293Z,13.75
2023-04-08T09:55:02.713Z,14.25
2023-04-08T09:57:42.899Z,11.00
2023-04-08T10:00:18.178Z,12.00
2023-04-08T10:03:11.032Z,11.50
2023-04-08T10:05:41.338Z,11.25
2023-04-08T10:08:08.807Z,12.75
2023-04-08T10:10:39.674Z,10.25
2023-04-08T10:13:08.185Z,11.00
2023-04-08T10:15:37.675Z,13.00
2023-04-08T10:18:07.306Z,13.25
2023-04-08T10:20:37.278Z,14.25
2023-04-08T10:23:05.886Z,13.75
2023-04-08T10:25:43.495Z,11.75
2023-04-08T10:28:19.144Z,13.75
2023-04-08T10:30:54.153Z,8.00
2023-04-08T10:33:25.777Z,12.50
2023-04-08T10:36:11.932Z,9.75
2023-04-08T10:38:39.814Z,12.75
2023-04-08T10:41:06.909Z,13.50
2023-04-08T10:43:35.610Z,13.00
2023-04-08T10:46:03.451Z,13.50
2023-04-08T10:48:31.036Z,14.00
2023-04-08T10:51:00.468Z,15.00
2023-04-08T10:53:36.596Z,14.75
2023-04-08T10:56:13.689Z,14.25
2023-04-08T10:58:51.917Z,13.25
2023-04-08T11:01:20.097Z,16.00
2023-04-08T11:03:47.645Z,14.25
2023-04-08T11:06:15.154Z,12.75
2023-04-08T11:08:42.555Z,15.25
2023-04-08T11:11:11.181Z,16.00
2023-04-08T11:13:51.111Z,15.00
2023-04-08T11:16:22.136Z,13.25
2023-04-08T11:18:50.798Z,13.25
2023-04-08T11:21:17.947Z,10.00
2023-04-08T11:23:44.983Z,14.00
2023-04-08T11:26:12.323Z,16.00
2023-04-08T11:28:40.634Z,15.75
2023-04-08T11:31:09.171Z,16.00
2023-04-08T11:33:36.595Z,14.50
2023-04-08T11:36:05.026Z,15.00
2023-04-08T11:38:32.235Z,15.25
2023-04-08T11:41:00.439Z,17.00
2023-04-08T11:43:28.936Z,15.25
2023-04-08T11:45:56.079Z,15.25
2023-04-08T11:48:24.104Z,14.50
2023-04-08T11:51:05.040Z,17.50
2023-04-08T11:53:32.370Z,16.00
2023-04-08T11:56:16.240Z,17.75
2023-04-08T11:58:43.244Z,16.75
2023-04-08T12:01:10.355Z,19.50
2023-04-08T12:03:37.548Z,16.50
2023-04-08T12:06:05.838Z,18.75
2023-04-08T12:08:32.905Z,14.25
2023-04-08T12:11:09.362Z,17.25
2023-04-08T12:13:44.147Z,15.25
2023-04-08T12:16:11.380Z,14.50
2023-04-08T12:18:38.775Z,16.00
2023-04-08T12:21:05.948Z,15.00
2023-04-08T12:23:32.918Z,16.50
2023-04-08T12:25:59.995Z,18.25
2023-04-08T12:28:27.152Z,17.25
2023-04-08T12:30:54.241Z,17.25
2023-04-08T12:33:21.213Z,17.00
2023-04-08T12:35:48.452Z,17.25
2023-04-08T12:38:15.450Z,17.50
2023-04-08T12:40:42.492Z,17.50
2023-04-08T12:43:09.567Z,16.25
2023-04-08T12:45:36.844Z,19.00
2023-04-08T12:48:03.983Z,20.00
2023-04-08T12:50:31.735Z,20.00
2023-04-08T12:52:58.753Z,18.00
2023-04-08T12:55:25.845Z,15.00
2023-04-08T12:57:53.483Z,14.75
2023-04-08T13:00:20.726Z,16.25
2023-04-08T13:02:47.840Z,20.50
2023-04-08T13:05:14.836Z,17.00
2023-04-08T13:07:41.858Z,21.75
2023-04-08T13:10:09.385Z,17.25
2023-04-08T13:12:36.739Z,19.25
2023-04-08T13:15:03.953Z,21.00
2023-04-08T13:17:31.066Z,21.00
2023-04-08T13:19:58.049Z,22.50
2023-04-08T13:22:25.081Z,18.25
2023-04-08T13:24:52.345Z,16.00
2023-04-08T13:27:19.313Z,16.25
2023-04-08T13:29:46.413Z,19.50
2023-04-08T13:32:13.442Z,20.00
2023-04-08T13:34:41.100Z,17.25
2023-04-08T13:37:08.142Z,83.25
2023-04-08T13:39:35.138Z,66.25
2023-04-08T13:42:03.070Z,37.00
2023-04-08T13:44:30.142Z,47.00
2023-04-08T13:46:57.104Z,29.33
2023-04-08T13:49:24.263Z,105.25
2023-04-08T13:51:51.206Z,168.50
2023-04-08T13:54:18.219Z,89.25
2023-04-08T13:56:45.256Z,41.67
2023-04-08T13:59:12.335Z,31.00
2023-04-08T14:01:40.984Z,30.50
2023-04-08T14:04:08.963Z,26.25
2023-04-08T14:06:36.860Z,27.25
2023-04-08T14:09:04.323Z,21.00
2023-04-08T14:11:31.377Z,18.00
2023-04-08T14:13:58.373Z,25.00
2023-04-08T14:16:25.907Z,20.00
2023-04-08T14:18:53.757Z,23.25
2023-04-08T14:21:21.139Z,22.50
2023-04-08T14:23:48.451Z,16.00
2023-04-08T14:26:16.081Z,23.50
2023-04-08T14:28:43.208Z,18.50
2023-04-08T14:31:10.298Z,19.00
2023-04-08T14:33:39.428Z,14.50
2023-04-08T14:36:07.811Z,10.25
2023-04-08T14:38:34.921Z,4.00
2023-04-08T14:41:02.312Z,17.25
2023-04-08T14:43:29.247Z,21.00
2023-04-08T14:45:56.298Z,23.75
2023-04-08T14:48:26.111Z,22.25
2023-04-08T14:50:53.083Z,15.25
2023-04-08T14:53:20.053Z,9.00
2023-04-08T14:56:01.700Z,14.50
2023-04-08T14:58:28.758Z,18.00
2023-04-08T15:00:56.000Z,20.00
2023-04-08T15:03:23.346Z,19.00
2023-04-08T15:05:50.520Z,15.25
2023-04-08T15:08:17.470Z,14.50
2023-04-08T15:10:44.394Z,13.75
2023-04-08T15:13:11.511Z,13.00
2023-04-08T15:15:38.558Z,17.25
2023-04-08T15:18:05.640Z,18.00
2023-04-08T15:20:32.707Z,19.75
2023-04-08T15:22:59.623Z,18.00
2023-04-08T15:25:26.594Z,19.25
2023-04-08T15:27:53.586Z,15.00
2023-04-08T15:30:25.317Z,19.00
2023-04-08T15:32:52.839Z,19.00
2023-04-08T15:35:19.938Z,18.50
2023-04-08T15:37:46.888Z,18.25
2023-04-08T15:40:14.052Z,27.00
2023-04-08T15:42:41.063Z,20.00
2023-04-08T15:45:08.574Z,22.25
2023-04-08T15:47:35.660Z,19.25
2023-04-08T15:50:02.718Z,15.50
2023-04-08T15:52:30.834Z,18.00
2023-04-08T15:54:58.488Z,24.00
2023-04-08T15:57:27.130Z,23.50
2023-04-08T15:59:54.354Z,25.25
2023-04-08T16:02:21.432Z,21.50
2023-04-08T16:04:48.581Z,24.00
2023-04-08T16:07:17.082Z,17.75
2023-04-08T16:09:44.353Z,22.25
2023-04-08T16:12:11.585Z,20.75
2023-04-08T16:14:38.761Z,26.00
2023-04-08T16:17:06.896Z,26.00
2023-04-08T16:19:33.872Z,24.00
2023-04-08T16:22:00.878Z,21.75
2023-04-08T16:24:28.332Z,24.00
2023-04-08T16:26:55.332Z,23.25
2023-04-08T16:29:23.177Z,27.00
2023-04-08T16:31:51.345Z,23.25
2023-04-08T16:34:20.244Z,24.50
2023-04-08T16:36:48.017Z,23.75
2023-04-08T16:39:14.928Z,27.00
2023-04-08T16:41:41.942Z,26.00
2023-04-08T16:44:08.932Z,24.00
2023-04-08T16:46:36.783Z,22.75
2023-04-08T16:49:04.212Z,24.00
2023-04-08T16:51:31.993Z,22.50
2023-04-08T16:53:59.836Z,25.00
2023-04-08T16:56:27.840Z,24.75
2023-04-08T16:58:55.409Z,20.50
2023-04-08T17:01:22.839Z,22.25
2023-04-08T17:03:50.742Z,20.00
2023-04-08T17:06:18.072Z,14.50
2023-04-08T17:08:45.069Z,18.00
2023-04-08T17:11:14.840Z,14.00
2023-04-08T17:13:44.088Z,17.25
2023-04-08T17:16:17.756Z,13.00
2023-04-08T17:18:45.552Z,13.50
2023-04-08T17:21:14.833Z,10.00
2023-04-08T17:23:42.271Z,14.50
2023-04-08T17:26:10.590Z,18.50
2023-04-08T17:28:38.278Z,19.25
2023-04-08T17:31:05.473Z,18.75
2023-04-08T17:33:34.187Z,24.75
2023-04-08T17:36:01.811Z,19.25
2023-04-08T17:38:29.000Z,20.00
2023-04-08T17:40:56.171Z,15.00
2023-04-08T17:43:23.315Z,13.25
2023-04-08T17:45:59.234Z,7.00
2023-04-08T17:48:28.414Z,18.75
2023-04-08T17:51:03.357Z,17.00
2023-04-08T17:53:31.033Z,14.75
2023-04-08T17:55:58.966Z,12.00
2023-04-08T17:58:26.634Z,14.00
2023-04-08T18:00:53.826Z,8.00
2023-04-08T18:03:21.217Z,25.00
2023-04-08T18:05:48.797Z,22.00
2023-04-08T18:08:16.150Z,19.00
2023-04-08T18:10:43.706Z,19.25
2023-04-08T18:16:59.584Z,23.25
2023-04-08T18:19:26.909Z,27.50
2023-04-08T18:21:55.616Z,25.75
2023-04-08T18:24:22.790Z,29.00
2023-04-08T18:27:01.525Z,27.00
2023-04-08T18:29:31.269Z,25.50
2023-04-08T18:31:58.302Z,24.50
2023-04-08T18:34:27.006Z,19.75
2023-04-08T18:36:54.063Z,23.00
2023-04-08T18:39:21.144Z,24.00
2023-04-08T18:41:48.315Z,24.50
2023-04-08T18:44:36.973Z,26.00
2023-04-08T18:47:04.204Z,29.67
2023-04-08T18:49:33.909Z,40.00
2023-04-08T18:52:02.925Z,39.00
2023-04-08T18:54:30.519Z,37.33
2023-04-08T18:56:57.812Z,33.00
2023-04-08T18:59:25.427Z,34.67
2023-04-08T19:01:52.580Z,31.00
2023-04-08T19:04:19.854Z,33.33
2023-04-08T19:06:46.900Z,27.00
2023-04-08T19:09:14.664Z,30.67
2023-04-08T19:11:41.858Z,28.00
2023-04-08T19:14:08.809Z,27.75
2023-04-08T19:16:35.926Z,25.50
2023-04-08T19:19:02.864Z,24.00
2023-04-08T19:21:31.500Z,19.25
2023-04-08T19:23:58.548Z,13.00
2023-04-08T19:26:25.573Z,14.00
2023-04-08T19:28:52.496Z,13.75
2023-04-08T19:31:20.918Z,12.00
2023-04-08T19:33:48.006Z,7.75
2023-04-08T19:36:14.979Z,0.25
2023-04-08T19:38:42.012Z,7.25
2023-04-08T19:41:08.959Z,8.00
2023-04-08T19:43:37.464Z,8.00
2023-04-08T19:46:04.987Z,7.00
2023-04-08T19:48:33.521Z,8.00
2023-04-08T19:51:00.513Z,7.00
2023-04-08T19:53:27.466Z,7.75
2023-04-08T19:56:01.927Z,6.75
2023-04-08T19:58:28.949Z,3.75
2023-04-08T20:00:56.055Z,19.00
2023-04-08T20:03:23.354Z,25.50
2023-04-08T20:05:50.903Z,27.50
2023-04-08T20:08:17.921Z,25.25
2023-04-08T20:10:44.899Z,19.25
2023-04-08T20:13:11.916Z,19.25
2023-04-08T20:15:38.964Z,14.00
2023-04-08T20:18:06.022Z,12.25
2023-04-08T20:20:33.035Z,13.00
2023-04-08T20:23:00.441Z,10.50
2023-04-08T20:25:27.665Z,17.50
2023-04-08T20:27:54.924Z,17.75
2023-04-08T20:30:22.944Z,18.25
2023-04-08T20:32:49.994Z,15.25
2023-04-08T20:35:17.704Z,8.00
2023-04-08T20:37:44.884Z,9.25
2023-04-08T20:40:12.796Z,9.50
2023-04-08T20:42:40.138Z,12.00
2023-04-08T20:45:08.413Z,13.50
2023-04-08T20:47:35.439Z,13.75
2023-04-08T20:50:02.873Z,23.25
2023-04-08T20:52:30.822Z,21.25
2023-04-08T20:54:57.970Z,18.75
2023-04-08T20:57:25.664Z,14.00
2023-04-08T20:59:52.707Z,22.00
2023-04-08T21:02:22.838Z,16.75
2023-04-08T21:04:50.722Z,21.00
2023-04-08T21:07:19.679Z,18.75
2023-04-08T21:09:51.533Z,15.75
2023-04-08T21:12:20.869Z,17.25
2023-04-08T21:14:48.383Z,12.00
2023-04-08T21:17:15.772Z,19.50
2023-04-08T21:19:43.239Z,18.00
2023-04-08T21:22:10.297Z,21.00
2023-04-08T21:24:38.217Z,18.50
2023-04-08T21:27:05.169Z,20.00
2023-04-08T21:29:32.276Z,18.50
2023-04-08T21:31:59.764Z,23.50
2023-04-08T21:34:27.355Z,30.33
2023-04-08T21:36:54.320Z,48.75
2023-04-08T21:39:21.383Z,46.75
2023-04-08T21:41:48.358Z,43.00
2023-04-08T21:44:15.834Z,39.33
2023-04-08T21:46:42.793Z,38.33
2023-04-08T21:49:11.645Z,35.00
2023-04-08T21:51:39.487Z,33.00
2023-04-08T21:54:06.654Z,32.33
2023-04-08T21:56:33.642Z,31.00
2023-04-08T21:59:00.966Z,26.75
2023-04-08T22:01:28.377Z,25.25
2023-04-08T22:03:55.805Z,22.25
2023-04-08T22:06:31.483Z,20.25
2023-04-08T22:08:59.853Z,22.50
2023-04-08T22:11:26.840Z,23.50
2023-04-08T22:13:54.105Z,25.75
2023-04-08T22:16:21.464Z,24.00
2023-04-08T22:18:48.794Z,26.75
2023-04-08T22:21:15.864Z,24.00
2023-04-08T22:23:43.023Z,20.00
2023-04-08T22:26:10.068Z,18.00
2023-04-08T22:28:39.028Z,16.75
2023-04-08T22:31:11.183Z,12.50
2023-04-08T22:33:39.414Z,13.75
2023-04-08T22:36:06.683Z,17.75
2023-04-08T22:38:33.838Z,14.25
2023-04-08T22:41:01.138Z,10.00
2023-04-08T22:43:28.070Z,14.25
2023-04-08T22:45:55.557Z,12.75
2023-04-08T22:48:23.096Z,14.00
2023-04-08T22:50:50.112Z,7.00
2023-04-08T22:53:17.150Z,13.00
2023-04-08T22:55:44.143Z,12.00
2023-04-08T22:58:11.187Z,11.50
2023-04-08T23:00:38.112Z,12.50
2023-04-08T23:03:05.185Z,17.25
2023-04-08T23:05:32.291Z,11.00
2023-04-08T23:07:59.432Z,16.50
2023-04-08T23:10:26.513Z,22.75
2023-04-08T23:13:04.208Z,23.00
2023-04-08T23:15:33.526Z,28.00
2023-04-08T23:18:10.588Z,23.75
2023-04-08T23:21:09.684Z,18.50
2023-04-08T23:24:02.125Z,12.00
2023-04-08T23:26:47.139Z,16.00
2023-04-08T23:32:43.072Z,12.25
2023-04-08T23:35:34.833Z,9.25
2023-04-08T23:38:31.328Z,9.00
2023-04-08T23:41:10.344Z,7.00
2023-04-08T23:43:52.935Z,7.50
2023-04-08T23:46:42.841Z,10.75
2023-04-08T23:49:23.488Z,12.50
2023-04-08T23:51:54.587Z,12.75
2023-04-08T23:54:32.170Z,17.25
2023-04-08T23:57:05.693Z,12.50
2023-04-08T23:59:33.900Z,13.75
